»·PEaware :: N5627E KOVE-KSNA

N5627E :: KOVE-KSNA

FLIGHT INFORMATION

Flight Status: Arrived
Operator: Privately registered:
United States
More flights under this callsign
Pilot: Jeb B. (17306)
Aircraft: Unknown
(E50P)
More flights by this aircraft type
Origin: KOVE Oroville Mun
United States
Destination: KSNA John Wayne-Orange Co
United States
More flights between these airports :: More routes between these airports
Route: +FLW TANDY4
File this flight plan on PilotEdge
Remarks:
Altitude:
(Current/Filed)
27,000ft
Speed:
(Current/Filed)
320kts
Departed: 08-Jan-18 01:43 PM
Arrived: 08-Jan-18 03:12 PM
Distance/Time
Traveled:
393nm/1:29
Distance/Time
To Go:
Arrived

Flight Plot

Page will automatically refresh every two minutes.

Flight plan parsing failed; only flown route is shown


Map Options




Map Legend


Flown Route
Filed Route
Departure Airport
Arrival Airport
Navaid (VOR, NDB)
Fix

Horizontal Profiles

Position Reports

Time Latitude Longitude Heading Altitude Ground
Speed
08-Jan-18 13:40 39.493092 -121.614470 359 189ft 0kts
08-Jan-18 13:41 39.493092 -121.614470 359 189ft 0kts
08-Jan-18 13:42 39.493092 -121.614470 359 189ft 0kts
08-Jan-18 13:43 39.494513 -121.616943 229 193ft 6kts
08-Jan-18 13:44 39.492698 -121.618895 213 188ft 10kts
08-Jan-18 13:45 39.492351 -121.619821 303 186ft 0kts
08-Jan-18 13:46 39.492351 -121.619821 303 186ft 0kts
08-Jan-18 13:47 39.492351 -121.619821 303 186ft 0kts
08-Jan-18 13:48 39.492351 -121.619821 303 186ft 0kts
08-Jan-18 13:49 39.487605 -121.624415 210 179ft 121kts
08-Jan-18 13:50 39.449644 -121.669620 223 1871ft 217kts
08-Jan-18 13:51 39.406193 -121.725648 223 3634ft 227kts
08-Jan-18 13:52 39.356448 -121.765763 198 5627ft 214kts
08-Jan-18 13:53 39.306670 -121.801807 210 7614ft 204kts
08-Jan-18 13:54 39.260890 -121.816184 147 9607ft 181kts
08-Jan-18 13:55 39.212619 -121.782856 160 11614ft 223kts
08-Jan-18 13:56 39.153382 -121.751909 162 13609ft 249kts
08-Jan-18 13:57 39.089037 -121.719925 163 15583ft 244kts
08-Jan-18 13:58 39.030634 -121.691138 164 17520ft 220kts
08-Jan-18 13:59 38.978085 -121.665407 164 19450ft 207kts
08-Jan-18 14:00 38.922198 -121.638215 163 21411ft 228kts
08-Jan-18 14:01 38.868269 -121.611788 163 23296ft 218kts
08-Jan-18 14:02 38.813634 -121.585097 163 25330ft 225kts
08-Jan-18 14:03 38.746953 -121.552803 162 26337ft 303kts
08-Jan-18 14:04 38.658548 -121.509723 162 26335ft 368kts
08-Jan-18 14:05 38.565104 -121.464338 161 26330ft 369kts
08-Jan-18 14:06 38.471684 -121.419165 161 26335ft 369kts
08-Jan-18 14:07 38.377795 -121.373887 161 26326ft 369kts
08-Jan-18 14:08 38.292689 -121.332992 162 26327ft 369kts
08-Jan-18 14:09 38.200770 -121.288905 162 26331ft 368kts
08-Jan-18 14:10 38.112621 -121.246721 162 28048ft 352kts
08-Jan-18 14:11 38.021795 -121.203429 162 30020ft 367kts
08-Jan-18 14:12 37.929763 -121.159615 162 31956ft 370kts
08-Jan-18 14:13 37.844196 -121.119000 163 33797ft 367kts
08-Jan-18 14:14 37.752775 -121.075757 163 34909ft 380kts
08-Jan-18 14:15 37.652871 -121.028604 163 34918ft 404kts
08-Jan-18 14:16 37.549438 -120.979885 163 34918ft 398kts
08-Jan-18 14:17 37.448360 -120.932495 163 34916ft 393kts
08-Jan-18 14:18 37.348303 -120.885699 163 34916ft 389kts
08-Jan-18 14:19 37.249819 -120.839732 163 34927ft 385kts
08-Jan-18 14:20 37.149058 -120.792887 163 34929ft 404kts
08-Jan-18 14:21 37.044346 -120.744255 164 34930ft 413kts
08-Jan-18 14:22 36.943838 -120.697480 166 34875ft 415kts
08-Jan-18 14:23 36.843657 -120.651597 166 34900ft 415kts
08-Jan-18 14:24 36.738199 -120.603083 166 34912ft 415kts
08-Jan-18 14:25 36.634258 -120.555414 166 34916ft 406kts
08-Jan-18 14:26 36.531867 -120.508568 166 34926ft 398kts
08-Jan-18 14:27 36.428827 -120.461653 166 34932ft 405kts
08-Jan-18 14:28 36.324664 -120.414256 166 34927ft 405kts
08-Jan-18 14:29 36.220413 -120.366999 166 34913ft 406kts
08-Jan-18 14:30 36.122541 -120.322777 167 34901ft 405kts
08-Jan-18 14:31 36.019136 -120.276114 166 34907ft 404kts
08-Jan-18 14:32 35.915710 -120.229631 166 34901ft 403kts
08-Jan-18 14:33 35.823093 -120.188103 167 34900ft 405kts
08-Jan-18 14:34 35.720489 -120.142212 166 34898ft 406kts
08-Jan-18 14:35 35.616155 -120.095672 167 34891ft 405kts
08-Jan-18 14:36 35.512469 -120.049546 166 34890ft 405kts
08-Jan-18 14:37 35.408572 -120.003458 166 34897ft 405kts
08-Jan-18 14:38 35.306807 -119.958436 166 34893ft 405kts
08-Jan-18 14:39 35.202742 -119.912533 166 34899ft 404kts
08-Jan-18 14:40 35.099932 -119.864375 157 34891ft 414kts
08-Jan-18 14:41 35.016710 -119.776077 148 33598ft 385kts
08-Jan-18 14:42 34.941425 -119.696832 149 31979ft 358kts
08-Jan-18 14:43 34.870967 -119.623073 149 30426ft 344kts
08-Jan-18 14:44 34.800302 -119.549299 149 28888ft 336kts
08-Jan-18 14:45 34.730715 -119.476743 148 27339ft 331kts
08-Jan-18 14:46 34.661722 -119.404935 148 25783ft 329kts
08-Jan-18 14:47 34.596287 -119.336981 148 24287ft 328kts
08-Jan-18 14:48 34.529857 -119.268089 147 23046ft 321kts
08-Jan-18 14:49 34.462827 -119.198810 147 21586ft 321kts
08-Jan-18 14:50 34.397019 -119.130785 146 20118ft 301kts
08-Jan-18 14:51 34.336390 -119.068378 146 18651ft 283kts
08-Jan-18 14:52 34.278198 -119.008586 146 17186ft 276kts
08-Jan-18 14:53 34.221256 -118.950188 145 15731ft 274kts
08-Jan-18 14:54 34.163792 -118.891380 145 14258ft 274kts
08-Jan-18 14:55 34.101980 -118.828316 144 13988ft 320kts
08-Jan-18 14:56 34.033508 -118.764901 163 13993ft 304kts
08-Jan-18 14:57 33.954434 -118.733900 166 14001ft 300kts
08-Jan-18 14:58 33.877011 -118.705510 166 14014ft 303kts
08-Jan-18 14:59 33.802160 -118.663681 130 13678ft 320kts
08-Jan-18 15:00 33.763343 -118.573027 121 12100ft 298kts
08-Jan-18 15:01 33.724454 -118.482772 121 10527ft 317kts
08-Jan-18 15:02 33.682605 -118.392611 121 8936ft 312kts
08-Jan-18 15:03 33.641441 -118.306715 121 8027ft 309kts
08-Jan-18 15:04 33.624323 -118.222298 56 8009ft 236kts
08-Jan-18 15:05 33.670431 -118.177103 41 6980ft 217kts
08-Jan-18 15:06 33.718117 -118.131317 41 5389ft 231kts
08-Jan-18 15:07 33.759649 -118.074666 51 3790ft 228kts
08-Jan-18 15:08 33.797623 -118.019670 51 2995ft 202kts
08-Jan-18 15:09 33.832216 -117.969275 51 2994ft 198kts
08-Jan-18 15:10 33.866798 -117.918652 51 2991ft 198kts
08-Jan-18 15:11 33.895742 -117.876167 52 2990ft 198kts
08-Jan-18 15:12 33.883495 -117.804874 111 2994ft 198kts
08-Jan-18 15:13 33.853324 -117.770204 178 3003ft 199kts
08-Jan-18 15:14 33.795542 -117.792450 208 2586ft 186kts
08-Jan-18 15:15 33.760080 -117.815267 207 1834ft 164kts
08-Jan-18 15:16 33.722686 -117.839030 206 1010ft 124kts
08-Jan-18 15:17 33.697960 -117.854713 206 456ft 119kts
08-Jan-18 15:18 33.674534 -117.869553 214 63ft 25kts
08-Jan-18 15:19 33.673975 -117.872367 208 63ft 6kts

Navigation Log

Ident Type
Flight plan parsing failed, navigation log unavailable